Time;durP1;ratioP1;P1;durP2;ratioP2;P2;SDS_P1;SDS_P2;PMS_P1;PMS_P2;Temp;Humidity;BMP_temperature;BMP_pressure;BME280_temperature;BME280_humidity;BME280_pressure;Samples;Min_cycle;Max_cycle;Signal;HPM_P1;HPM_P2
2022/05/06 00:01:39;;;;;;;14.50;9.80;;;15.40;94.20;;;;;;5079783;28;20396;-69
2022/05/06 00:04:06;;;;;;;39.00;10.73;;;15.40;94.10;;;;;;5066317;28;20426;-69
2022/05/06 00:06:33;;;;;;;58.67;10.70;;;15.40;94.20;;;;;;5066521;28;20403;-71
2022/05/06 00:08:58;;;;;;;36.90;11.90;;;15.40;93.90;;;;;;5066700;28;20510;-71
2022/05/06 00:11:25;;;;;;;34.78;11.50;;;15.40;94.10;;;;;;5063488;28;20498;-71
2022/05/06 00:13:52;;;;;;;21.80;12.48;;;15.30;94.20;;;;;;5067004;28;20405;-71
2022/05/06 00:16:23;;;;;;;18.15;12.30;;;15.30;94.30;;;;;;5066504;28;20502;-70
2022/05/06 00:18:49;;;;;;;37.25;12.05;;;15.20;94.40;;;;;;5067757;28;20432;-71
2022/05/06 00:21:15;;;;;;;21.83;12.57;;;15.20;94.40;;;;;;5064664;28;21290;-72
2022/05/06 00:23:40;;;;;;;18.08;12.82;;;15.20;94.50;;;;;;5066860;28;20483;-71
2022/05/06 00:26:07;;;;;;;22.27;13.27;;;15.20;94.70;;;;;;5065102;28;20422;-71
2022/05/06 00:28:32;;;;;;;55.40;12.40;;;15.20;94.80;;;;;;5064715;28;20415;-70
2022/05/06 00:31:00;;;;;;;22.05;12.57;;;15.20;94.60;;;;;;5066442;28;20417;-70
2022/05/06 00:33:26;;;;;;;19.88;13.02;;;15.20;94.50;;;;;;5067424;28;20419;-70
2022/05/06 00:35:55;;;;;;;;;;;15.10;94.60;;;;;;5066519;28;20887;-71
2022/05/06 00:38:22;;;;;;;;;;;15.10;94.70;;;;;;5046232;28;19971;-70
2022/05/06 00:40:47;;;;;;;;;;;15.20;94.90;;;;;;5065793;28;20005;-70
2022/05/06 00:43:13;;;;;;;;;;;15.20;94.80;;;;;;5064358;28;20049;-70
2022/05/06 00:45:49;;;;;;;;;;;15.20;94.60;;;;;;5066499;28;20321;-71
2022/05/06 00:48:16;;;;;;;;;;;15.20;94.60;;;;;;5066017;28;19912;-70
2022/05/06 00:50:43;;;;;;;;;;;15.10;94.60;;;;;;5066549;28;19915;-71
2022/05/06 00:53:09;;;;;;;;;;;15.00;95.10;;;;;;5066003;28;19908;-70
2022/05/06 00:55:35;;;;;;;;;;;14.90;95.00;;;;;;5069361;28;20383;-70
2022/05/06 00:58:01;;;;;;;;;;;14.90;95.00;;;;;;5064781;28;19922;-70
2022/05/06 01:00:28;;;;;;;;;;;14.80;95.10;;;;;;5067212;28;19939;-71
2022/05/06 01:02:53;;;;;;;;;;;14.80;95.20;;;;;;5067750;28;19916;-71
2022/05/06 01:05:19;;;;;;;;;;;14.80;95.40;;;;;;5069108;28;19930;-72
2022/05/06 01:07:47;;;;;;;21.45;11.82;;;14.70;95.30;;;;;;5046167;28;20424;-71
2022/05/06 01:10:13;;;;;;;53.83;12.52;;;14.70;95.10;;;;;;5063981;28;20426;-71
2022/05/06 01:12:38;;;;;;;69.30;12.13;;;14.70;95.10;;;;;;5065124;28;20423;-71
2022/05/06 01:15:18;;;;;;;257.70;14.20;;;14.70;95.20;;;;;;5050074;28;20851;-71
2022/05/06 01:17:46;;;;;;;73.27;13.70;;;14.60;95.00;;;;;;5063388;28;20986;-71
2022/05/06 01:20:15;;;;;;;68.07;13.15;;;14.60;95.10;;;;;;5066664;28;20465;-73
2022/05/06 01:23:00;;;;;;;26.30;11.43;;;14.50;95.20;;;;;;5064896;28;20884;-72
2022/05/06 01:25:27;;;;;;;65.70;12.80;;;14.50;95.40;;;;;;5064143;28;20483;-71
2022/05/06 01:28:02;;;;;;;72.18;12.23;;;14.50;95.10;;;;;;5047781;28;20765;-71
2022/05/06 01:30:42;;;;;;;89.15;11.90;;;14.50;95.10;;;;;;5067274;28;20414;-71
2022/05/06 01:33:11;;;;;;;113.38;11.88;;;14.40;94.90;;;;;;5065126;28;20496;-72
2022/05/06 01:35:50;;;;;;;162.77;12.02;;;14.30;95.00;;;;;;5063776;28;20882;-71
2022/05/06 01:38:21;;;;;;;37.90;12.73;;;14.30;94.90;;;;;;5064668;28;20915;-72
2022/05/06 01:40:49;;;;;;;;;;;14.20;95.30;;;;;;5066086;28;20464;-71
2022/05/06 01:43:16;;;;;;;;;;;13.80;95.90;;;;;;5048581;28;19904;-72
2022/05/06 01:45:48;;;;;;;33.15;11.07;;;13.50;96.40;;;;;;5069347;28;20462;-73
2022/05/06 01:48:16;;;;;;;48.22;10.90;;;13.20;96.70;;;;;;5052269;28;20647;-70
2022/05/06 01:50:45;;;;;;;82.65;10.00;;;13.10;96.90;;;;;;5070264;28;20182;-70
2022/05/06 01:53:16;;;;;;;72.45;11.05;;;13.00;97.00;;;;;;5069380;28;20523;-70
2022/05/06 01:55:44;;;;;;;34.00;9.70;;;12.80;97.10;;;;;;5066576;28;20629;-72
2022/05/06 01:58:13;;;;;;;;;;;12.70;97.20;;;;;;5070182;28;19912;-71
2022/05/06 02:00:44;;;;;;;;;;;12.60;97.30;;;;;;5071096;28;19915;-71
2022/05/06 02:06:05;;;;;;;;;;;12.40;97.50;;;;;;5070651;28;20276;-71
2022/05/06 02:08:33;;;;;;;;;;;12.30;97.60;;;;;;5037349;28;19947;-70
2022/05/06 02:11:01;;;;;;;;;;;12.20;97.70;;;;;;5070632;28;20758;-71
2022/05/06 02:13:27;;;;;;;;;;;12.20;97.70;;;;;;5068031;28;19915;-70
2022/05/06 02:16:08;;;;;;;;;;;12.10;97.90;;;;;;5067868;28;19909;-71
2022/05/06 02:18:52;;;;;;;;;;;12.10;97.90;;;;;;5071848;28;20272;-71
2022/05/06 02:21:36;;;;;;;;;;;12.10;98.00;;;;;;5070305;28;19926;-70
2022/05/06 02:24:12;;;;;;;;;;;12.10;98.00;;;;;;5070779;28;19916;-71
2022/05/06 02:27:07;;;;;;;;;;;12.00;98.10;;;;;;5083937;28;20466;-71
2022/05/06 02:29:32;;;;;;;;;;;12.00;98.10;;;;;;5069846;28;19960;-71
2022/05/06 02:34:46;;;;;;;;;;;12.00;98.10;;;;;;5067175;28;19946;-71
2022/05/06 02:37:14;;;;;;;;;;;11.90;98.20;;;;;;5052638;28;19919;-71
2022/05/06 02:39:47;;;;;;;;;;;11.90;98.30;;;;;;5060448;28;19918;-72
2022/05/06 02:42:23;;;;;;;;;;;11.90;98.40;;;;;;5068702;28;19912;-71
2022/05/06 02:44:50;;;;;;;;;;;11.90;98.40;;;;;;5067213;28;19918;-72
2022/05/06 02:47:16;;;;;;;;;;;11.90;98.40;;;;;;5067514;28;19909;-70
2022/05/06 02:49:42;;;;;;;;;;;11.90;98.60;;;;;;5070465;28;19916;-69
2022/05/06 02:52:11;;;;;;;;;;;11.80;98.60;;;;;;5069105;28;20109;-69
2022/05/06 02:54:38;;;;;;;;;;;11.80;98.70;;;;;;5068827;28;19970;-70
2022/05/06 02:57:06;;;;;;;;;;;11.80;98.80;;;;;;5063290;28;19920;-70
2022/05/06 02:59:32;;;;;;;;;;;11.80;98.90;;;;;;5070078;28;19965;-71
2022/05/06 03:01:57;;;;;;;;;;;11.80;99.00;;;;;;5067537;28;20345;-71
2022/05/06 03:04:24;;;;;;;;;;;11.80;99.10;;;;;;5069203;28;19958;-72
2022/05/06 03:06:50;;;;;;;;;;;11.80;99.10;;;;;;5067178;28;19982;-71
2022/05/06 03:09:41;;;;;;;;;;;12.30;99.50;;;;;;5068890;28;19957;-71
2022/05/06 03:12:08;;;;;;;;;;;12.60;99.30;;;;;;5068099;28;20003;-70
2022/05/06 03:14:37;;;;;;;;;;;12.80;99.30;;;;;;5051732;28;19916;-70
2022/05/06 03:17:32;;;;;;;;;;;12.90;99.30;;;;;;5072865;28;19923;-71
2022/05/06 03:19:58;;;;;;;;;;;13.00;99.30;;;;;;5070686;28;19912;-71
2022/05/06 03:22:24;;;;;;;;;;;13.10;99.20;;;;;;5067660;28;20451;-70
2022/05/06 03:24:49;;;;;;;;;;;12.80;99.60;;;;;;5066907;28;20281;-71
2022/05/06 03:30:00;;;;;;;;;;;12.30;99.90;;;;;;5070277;28;20411;-70
2022/05/06 03:32:31;;;;;;;;;;;12.10;99.90;;;;;;5067552;28;19916;-71
2022/05/06 03:34:57;;;;;;;;;;;11.90;99.90;;;;;;5067231;28;20343;-69
2022/05/06 03:37:25;;;;;;;;;;;11.90;99.90;;;;;;5052713;28;19962;-70
2022/05/06 03:39:51;;;;;;;;;;;11.80;99.90;;;;;;5069559;28;19927;-69
2022/05/06 03:42:16;;;;;;;;;;;11.70;99.90;;;;;;5068346;28;19909;-71
2022/05/06 03:44:43;;;;;;;;;;;11.70;99.90;;;;;;5068220;28;20457;-71
2022/05/06 03:47:09;;;;;;;;;;;11.60;99.90;;;;;;5067859;28;20343;-73
2022/05/06 03:49:36;;;;;;;;;;;11.60;99.90;;;;;;5067132;28;19969;-70
2022/05/06 03:52:03;;;;;;;;;;;11.50;99.90;;;;;;5067834;28;19959;-71
2022/05/06 03:54:29;;;;;;;;;;;11.50;99.90;;;;;;5068169;28;19961;-71
2022/05/06 03:56:55;;;;;;;;;;;11.50;99.90;;;;;;5066757;28;19916;-71
2022/05/06 03:59:22;;;;;;;;;;;11.40;99.90;;;;;;5069578;28;19912;-70
2022/05/06 04:01:55;;;;;;;;;;;11.40;99.90;;;;;;5066836;28;19908;-72
2022/05/06 04:04:27;;;;;;;;;;;11.40;99.90;;;;;;5059608;28;19908;-72
2022/05/06 04:06:55;;;;;;;;;;;11.40;99.90;;;;;;5063481;28;19908;-72
2022/05/06 04:09:21;;;;;;;;;;;11.30;99.90;;;;;;5066156;28;20380;-72
2022/05/06 04:11:47;;;;;;;;;;;11.30;99.90;;;;;;5066877;28;19908;-71
2022/05/06 04:14:12;;;;;;;;;;;11.30;99.90;;;;;;5066911;28;19919;-72
2022/05/06 04:16:43;;;;;;;;;;;11.30;99.90;;;;;;5050472;28;19957;-72
2022/05/06 04:19:19;;;;;;;;;;;11.30;99.90;;;;;;5065349;28;19916;-71
2022/05/06 04:24:37;;;;;;;;;;;11.30;99.90;;;;;;5054442;28;19912;-70
2022/05/06 04:27:04;;;;;;;;;;;11.30;99.90;;;;;;5062150;28;19919;-71
2022/05/06 04:29:30;;;;;;;;;;;11.30;99.90;;;;;;5059207;28;19923;-70
2022/05/06 04:31:55;;;;;;;;;;;11.30;99.90;;;;;;5058368;28;19920;-69
2022/05/06 04:34:21;;;;;;;;;;;11.80;99.90;;;;;;5060508;28;19908;-71
2022/05/06 04:36:47;;;;;;;;;;;12.20;99.90;;;;;;5051055;28;19912;-71
2022/05/06 04:39:13;;;;;;;;;;;12.30;99.90;;;;;;5063197;28;19920;-71
2022/05/06 04:41:48;;;;;;;;;;;11.90;99.90;;;;;;5066108;28;20384;-70
2022/05/06 04:44:18;;;;;;;;;;;11.60;99.90;;;;;;5066941;28;19957;-72
2022/05/06 04:46:46;;;;;;;;;;;11.50;99.90;;;;;;5066217;28;19908;-70
2022/05/06 04:49:12;;;;;;;;;;;11.40;99.90;;;;;;5067220;28;19920;-70
2022/05/06 04:51:37;;;;;;;;;;;11.40;99.90;;;;;;5050483;28;19912;-70
2022/05/06 04:54:04;;;;;;;;;;;11.40;99.90;;;;;;5066040;28;20309;-70
2022/05/06 04:56:29;;;;;;;;;;;11.40;99.90;;;;;;5067402;28;19995;-73
2022/05/06 04:59:05;;;;;;;;;;;11.40;99.90;;;;;;5063059;28;20281;-72
2022/05/06 05:01:42;;;;;;;;;;;11.30;99.90;;;;;;5064892;28;19916;-69
2022/05/06 05:04:07;;;;;;;;;;;11.30;99.90;;;;;;5058552;28;19982;-69
2022/05/06 05:06:35;;;;;;;;;;;11.30;99.90;;;;;;5066129;28;19912;-69
2022/05/06 05:09:06;;;;;;;;;;;11.80;99.90;;;;;;5066849;28;19904;-69
2022/05/06 05:11:33;;;;;;;;;;;12.30;99.90;;;;;;5064779;28;19917;-70
2022/05/06 05:14:08;;;;;;;;;;;12.50;99.90;;;;;;5066221;28;20358;-70
2022/05/06 05:16:38;;;;;;;;;;;12.20;99.90;;;;;;5065053;28;19998;-69
2022/05/06 05:19:03;;;;;;;;;;;11.90;99.90;;;;;;5065148;28;20007;-70
2022/05/06 05:21:30;;;;;;;;;;;11.80;99.90;;;;;;5068744;28;19920;-69
2022/05/06 05:23:59;;;;;;;;;;;11.80;99.90;;;;;;5069427;28;20364;-70
2022/05/06 05:26:25;;;;;;;;;;;11.70;99.90;;;;;;5070822;28;19908;-70
2022/05/06 05:28:52;;;;;;;;;;;11.60;99.90;;;;;;5066386;28;20033;-70
2022/05/06 05:31:19;;;;;;;;;;;11.50;99.90;;;;;;5071739;28;19918;-70
2022/05/06 05:33:45;;;;;;;;;;;11.50;99.90;;;;;;5070310;28;20405;-69
2022/05/06 05:36:11;;;;;;;;;;;11.40;99.90;;;;;;5071334;28;20315;-69
2022/05/06 05:38:38;;;;;;;;;;;11.40;99.90;;;;;;5054083;28;19924;-69
2022/05/06 05:41:04;;;;;;;;;;;11.40;99.90;;;;;;5070090;28;20022;-70
2022/05/06 05:49:02;;;;;;;;;;;11.40;99.90;;;;;;5069437;28;19916;-69
2022/05/06 05:51:29;;;;;;;;;;;11.40;99.90;;;;;;5073057;28;19913;-69
2022/05/06 05:53:58;;;;;;;;;;;11.50;99.90;;;;;;5068762;28;19908;-69
2022/05/06 05:56:28;;;;;;;;;;;11.60;99.90;;;;;;5065396;28;19912;-69
2022/05/06 05:58:54;;;;;;;;;;;11.60;99.90;;;;;;5068473;28;19970;-69
2022/05/06 06:01:22;;;;;;;;;;;11.60;99.90;;;;;;5071338;28;19956;-69
2022/05/06 06:03:48;;;;;;;;;;;11.60;99.90;;;;;;5068000;28;19952;-69
2022/05/06 06:06:14;;;;;;;;;;;11.70;99.90;;;;;;5069839;28;20326;-69
2022/05/06 06:08:43;;;;;;;;;;;11.70;99.90;;;;;;5068208;28;19951;-70
2022/05/06 06:11:09;;;;;;;;;;;11.70;99.90;;;;;;5069824;28;20033;-70
2022/05/06 06:13:39;;;;;;;;;;;11.70;99.90;;;;;;5066943;28;21420;-69
2022/05/06 06:16:07;;;;;;;;;;;11.70;99.90;;;;;;5053171;28;20014;-69
2022/05/06 06:18:33;;;;;;;;;;;11.70;99.90;;;;;;5068655;28;20003;-68
2022/05/06 06:21:00;;;;;;;;;;;11.80;99.90;;;;;;5051800;28;19912;-70
2022/05/06 06:23:29;;;;;;;;;;;11.80;99.90;;;;;;5068465;28;19990;-69
2022/05/06 06:25:55;;;;;;;;;;;11.90;99.90;;;;;;5070760;28;20250;-69
2022/05/06 06:28:21;;;;;;;;;;;11.90;99.90;;;;;;5052594;28;19912;-69
2022/05/06 06:30:46;;;;;;;;;;;12.00;99.90;;;;;;5067215;28;19963;-69
2022/05/06 06:33:15;;;;;;;;;;;12.10;99.90;;;;;;5068189;28;19917;-69
2022/05/06 06:35:41;;;;;;;;;;;12.10;99.90;;;;;;5053757;28;19919;-70
2022/05/06 06:38:07;;;;;;;;;;;12.20;99.90;;;;;;5065624;28;19936;-70
2022/05/06 06:40:39;;;;;;;;;;;12.20;99.90;;;;;;5067854;28;19982;-70
2022/05/06 06:43:05;;;;;;;;;;;12.30;99.90;;;;;;5068160;28;19912;-69
2022/05/06 06:45:54;;;;;;;;;;;12.40;99.90;;;;;;5075691;28;19999;-69
2022/05/06 06:48:53;;;;;;;;;;;12.40;99.90;;;;;;5057364;28;19919;-70
2022/05/06 06:51:48;;;;;;;;;;;12.40;99.90;;;;;;5073033;28;19912;-70
2022/05/06 06:54:13;;;;;;;;;;;12.40;99.90;;;;;;5052998;28;19915;-70
2022/05/06 06:56:39;;;;;;;;;;;12.50;99.90;;;;;;5068779;28;19908;-69
2022/05/06 06:59:05;;;;;;;;;;;12.40;99.90;;;;;;5062658;28;20270;-69
2022/05/06 07:01:32;;;;;;;;;;;12.40;99.90;;;;;;5061508;28;19920;-70
2022/05/06 07:03:58;;;;;;;;;;;12.30;99.90;;;;;;5065369;28;19908;-70
2022/05/06 07:11:56;;;;;;;;;;;13.40;99.90;;;;;;5068325;28;19947;-70
2022/05/06 07:14:36;;;;;;;;;;;13.60;99.90;;;;;;5066830;28;19919;-70
2022/05/06 07:17:02;;;;;;;;;;;13.70;99.90;;;;;;5066902;28;19908;-69
2022/05/06 07:19:28;;;;;;;;;;;13.80;99.90;;;;;;5067797;28;19993;-70
2022/05/06 07:21:54;;;;;;;;;;;13.50;99.90;;;;;;5066482;28;19958;-71
2022/05/06 07:24:20;;;;;;;;;;;13.30;99.90;;;;;;5065436;28;19912;-71
2022/05/06 07:26:46;;;;;;;;;;;13.10;99.90;;;;;;5068413;28;19909;-71
2022/05/06 07:29:12;;;;;;;;;;;13.10;99.90;;;;;;5071079;28;19961;-72
2022/05/06 07:31:38;;;;;;;;;;;13.10;99.90;;;;;;5067267;28;20205;-71
2022/05/06 07:34:04;;;;;;;;;;;13.10;99.90;;;;;;5065447;28;19926;-72
2022/05/06 07:36:32;;;;;;;;;;;13.00;99.90;;;;;;5067376;28;19908;-71
2022/05/06 07:38:58;;;;;;;;;;;13.00;99.90;;;;;;5070215;28;19929;-72
2022/05/06 07:41:24;;;;;;;;;;;13.00;99.90;;;;;;5065822;28;20380;-71
2022/05/06 07:43:49;;;;;;;;;;;13.10;99.90;;;;;;5067640;28;20374;-71
2022/05/06 07:46:15;;;;;;;;;;;13.20;99.90;;;;;;5068481;28;20341;-72
2022/05/06 07:48:40;;;;;;;;;;;13.20;99.90;;;;;;5068618;28;20402;-70
2022/05/06 07:51:06;;;;;;;;;;;13.30;99.90;;;;;;5066414;28;19912;-71
2022/05/06 07:53:32;;;;;;;;;;;13.40;99.90;;;;;;5067317;28;19912;-71
2022/05/06 07:55:58;;;;;;;;;;;13.40;99.90;;;;;;5064559;28;19962;-71
2022/05/06 07:58:23;;;;;;;;;;;13.50;99.90;;;;;;5070144;28;20371;-71
2022/05/06 08:00:50;;;;;;;;;;;13.60;99.90;;;;;;5066530;28;19915;-71
2022/05/06 08:06:00;;;;;;;;;;;14.30;99.90;;;;;;5066294;28;20066;-70
2022/05/06 08:08:26;;;;;;;;;;;14.80;99.70;;;;;;5069898;28;19999;-70
2022/05/06 08:10:52;;;;;;;;;;;14.60;99.90;;;;;;5065264;28;19954;-71
2022/05/06 08:13:18;;;;;;;;;;;14.60;99.90;;;;;;5068572;28;19919;-69
2022/05/06 08:15:44;;;;;;;;;;;14.70;99.90;;;;;;5067616;28;20425;-71
2022/05/06 08:18:09;;;;;;;;;;;15.70;99.20;;;;;;5066730;28;20982;-68
2022/05/06 08:20:35;;;;;;;;;;;16.90;95.80;;;;;;5065278;28;19912;-68
2022/05/06 08:23:00;;;;;;;;;;;17.60;93.00;;;;;;5063034;28;20262;-69
2022/05/06 08:25:26;;;;;;;;;;;18.00;91.40;;;;;;5068542;28;19916;-67
2022/05/06 08:27:52;;;;;;;;;;;18.20;90.50;;;;;;5066756;28;19917;-68
2022/05/06 08:30:18;;;;;;;;;;;18.30;90.00;;;;;;5065762;28;19908;-66
2022/05/06 08:32:44;;;;;;;;;;;18.30;89.60;;;;;;5066810;28;21599;-70
2022/05/06 08:35:09;;;;;;;;;;;18.30;89.50;;;;;;5069822;28;19912;-69
2022/05/06 08:37:43;;;;;;;;;;;18.40;89.40;;;;;;5065737;28;19916;-68
2022/05/06 08:40:15;;;;;;;;;;;18.50;89.20;;;;;;5049718;28;19991;-69
2022/05/06 08:42:40;;;;;;;;;;;18.60;89.20;;;;;;5066458;28;19912;-71
2022/05/06 08:50:52;;;;;;;11.10;8.55;;;19.60;84.80;;;;;;5065247;28;20515;-69
2022/05/06 08:53:23;;;;;;;11.30;8.70;;;20.20;80.40;;;;;;5062529;28;20490;-69
2022/05/06 08:55:50;;;;;;;9.98;7.60;;;20.70;77.20;;;;;;5067125;28;20407;-68
2022/05/06 08:58:16;;;;;;;9.48;7.80;;;21.40;75.20;;;;;;5065116;28;20465;-68
2022/05/06 09:00:42;;;;;;;10.52;7.85;;;22.00;71.90;;;;;;5067383;28;20404;-68
2022/05/06 09:03:08;;;;;;;9.75;7.78;;;22.70;67.90;;;;;;5066174;28;20430;-69
2022/05/06 09:05:54;;;;;;;8.85;7.80;;;23.40;64.60;;;;;;5064693;28;20420;-68
2022/05/06 09:08:23;;;;;;;12.43;8.57;;;24.30;60.70;;;;;;5064520;28;20408;-68
2022/05/06 09:11:00;;;;;;;9.40;7.85;;;25.20;56.90;;;;;;5064348;28;20862;-68
2022/05/06 09:13:26;;;;;;;10.48;8.40;;;25.80;53.30;;;;;;5065638;28;20440;-68
2022/05/06 09:18:37;;;;;;;12.23;8.35;;;26.70;49.90;;;;;;5066757;28;20840;-69
2022/05/06 09:21:10;;;;;;;;;;;27.20;48.30;;;;;;5068360;28;20756;-70
2022/05/06 09:23:35;;;;;;;;;;;27.80;47.10;;;;;;5067436;28;19950;-69
2022/05/06 09:26:01;;;;;;;;;;;28.20;45.60;;;;;;5067931;28;20312;-68
2022/05/06 09:28:30;;;;;;;;;;;28.70;44.50;;;;;;5066810;28;20261;-69
2022/05/06 09:31:06;;;;;;;;;;;29.20;42.40;;;;;;5067846;28;20003;-68
2022/05/06 09:33:37;;;;;;;9.60;7.87;;;29.70;41.70;;;;;;5064663;28;20433;-69
2022/05/06 09:36:27;;;;;;;9.77;7.97;;;30.30;41.20;;;;;;5064832;28;20395;-69
2022/05/06 09:39:10;;;;;;;14.32;8.27;;;30.80;39.40;;;;;;5047965;28;20423;-69
2022/05/06 09:41:39;;;;;;;;;;;30.80;36.60;;;;;;5064750;28;20641;-69
2022/05/06 09:44:06;;;;;;;;;;;29.60;40.90;;;;;;5066233;28;20400;-70
2022/05/06 09:46:32;;;;;;;;;;;29.10;42.50;;;;;;5066493;28;19916;-69
2022/05/06 09:48:58;;;;;;;;;;;28.90;42.90;;;;;;5067683;28;19916;-69
2022/05/06 09:51:27;;;;;;;;;;;28.70;43.30;;;;;;5067452;28;19916;-70
2022/05/06 09:53:53;;;;;;;;;;;28.80;43.10;;;;;;5065501;28;19974;-70
2022/05/06 09:56:19;;;;;;;;;;;28.80;43.00;;;;;;5069858;28;19958;-69
2022/05/06 09:58:45;;;;;;;;;;;29.00;43.00;;;;;;5061787;28;20020;-69
2022/05/06 10:01:11;;;;;;;;;;;29.20;42.80;;;;;;5065186;28;20354;-70
2022/05/06 10:03:37;;;;;;;;;;;29.50;42.00;;;;;;5062623;28;19928;-68
2022/05/06 10:06:04;;;;;;;;;;;32.70;33.40;;;;;;5067547;28;19916;-68
2022/05/06 10:08:30;;;;;;;;;;;31.80;35.70;;;;;;5071162;28;19916;-68
2022/05/06 10:10:58;;;;;;;;;;;31.20;36.20;;;;;;5071371;28;20334;-67
2022/05/06 10:13:25;;;;;;;;;;;30.80;38.80;;;;;;5069133;28;20317;-68
2022/05/06 10:15:52;;;;;;;;;;;30.60;39.80;;;;;;5068877;28;19924;-69
2022/05/06 10:18:37;;;;;;;;;;;30.50;41.20;;;;;;5071584;28;20612;-68
2022/05/06 10:21:26;;;;;;;;;;;30.50;43.10;;;;;;5052794;28;20341;-68
2022/05/06 10:23:56;;;;;;;;;;;30.60;40.80;;;;;;5067284;28;19919;-69
2022/05/06 10:26:34;;;;;;;;;;;30.70;41.20;;;;;;5069162;28;19908;-68
2022/05/06 10:34:32;;;;;;;;;;;31.10;45.70;;;;;;5072470;28;19916;-70
2022/05/06 10:37:02;;;;;;;;;;;31.50;47.30;;;;;;5071182;28;19914;-68
2022/05/06 10:39:33;;;;;;;;;;;31.70;44.90;;;;;;5072248;28;20680;-69
2022/05/06 10:42:03;;;;;;;;;;;31.80;44.90;;;;;;5068717;28;19908;-69
2022/05/06 10:44:32;;;;;;;;;;;31.70;43.90;;;;;;5070167;28;19927;-69
2022/05/06 10:46:58;;;;;;;;;;;31.80;44.80;;;;;;5066035;28;20289;-68
2022/05/06 10:49:39;;;;;;;;;;;31.80;43.70;;;;;;5068694;28;19908;-70
2022/05/06 10:52:14;;;;;;;;;;;31.80;44.40;;;;;;5067979;28;19912;-68
2022/05/06 10:54:43;;;;;;;;;;;32.00;44.20;;;;;;5070609;28;19913;-69
2022/05/06 10:57:09;;;;;;;;;;;32.10;47.20;;;;;;5068360;28;19912;-68
2022/05/06 10:59:50;;;;;;;;;;;32.40;44.80;;;;;;5069653;28;19939;-69
2022/05/06 11:02:16;;;;;;;;;;;32.40;40.70;;;;;;5068052;28;19916;-70
2022/05/06 11:04:54;;;;;;;;;;;32.40;45.40;;;;;;5071542;28;19916;-69
2022/05/06 11:07:20;;;;;;;;;;;32.40;41.20;;;;;;5068049;28;20270;-70
2022/05/06 11:09:46;;;;;;;;;;;32.50;44.70;;;;;;5071817;28;19938;-69
2022/05/06 11:12:27;;;;;;;;;;;32.50;42.70;;;;;;5069663;28;19916;-70
2022/05/06 11:14:55;;;;;;;;;;;32.50;41.60;;;;;;5067515;28;19959;-70
2022/05/06 11:17:27;;;;;;;;;;;32.40;42.40;;;;;;5065157;28;19935;-69
2022/05/06 11:19:53;;;;;;;;;;;32.30;42.60;;;;;;5067736;28;20357;-68
2022/05/06 11:22:20;;;;;;;;;;;32.20;41.70;;;;;;5069303;28;19998;-69
2022/05/06 11:24:46;;;;;;;10.23;6.68;;;32.10;37.30;;;;;;5070435;28;20261;-68
2022/05/06 11:27:17;;;;;;;8.95;6.53;;;32.10;42.50;;;;;;5066674;28;20658;-69
2022/05/06 11:29:56;;;;;;;17.52;6.88;;;32.00;39.00;;;;;;5071160;28;20200;-68
2022/05/06 11:32:29;;;;;;;12.90;7.38;;;32.00;37.50;;;;;;5068598;28;20221;-70
2022/05/06 11:34:57;;;;;;;10.32;6.65;;;31.90;36.50;;;;;;5066994;28;20688;-69
2022/05/06 11:37:31;;;;;;;12.73;7.40;;;31.90;35.60;;;;;;5066755;28;20590;-69
2022/05/06 11:42:41;;;;;;;11.10;7.20;;;32.80;31.50;;;;;;5057771;28;20409;-69
2022/05/06 11:48:09;;;;;;;13.60;7.72;;;32.90;30.80;;;;;;5067334;28;20411;-69
2022/05/06 11:50:36;;;;;;;12.65;7.80;;;32.50;31.70;;;;;;5067010;28;20486;-68
2022/05/06 11:53:10;;;;;;;12.67;7.70;;;32.20;32.50;;;;;;5063059;28;20403;-69
2022/05/06 11:55:43;;;;;;;14.38;7.55;;;32.00;32.10;;;;;;5069623;28;20395;-69
2022/05/06 11:58:12;;;;;;;15.35;7.75;;;31.90;32.70;;;;;;5063237;28;20490;-68
2022/05/06 12:00:38;;;;;;;21.15;7.38;;;31.80;32.40;;;;;;5065530;28;20960;-66
2022/05/06 12:03:06;;;;;;;15.75;7.07;;;31.30;32.90;;;;;;5065718;28;20502;-66
2022/05/06 12:05:33;;;;;;;32.05;8.13;;;31.00;33.20;;;;;;5066555;28;20496;-67
2022/05/06 12:07:59;;;;;;;11.75;7.20;;;30.60;33.90;;;;;;5068574;28;20182;-66
2022/05/06 12:10:33;;;;;;;14.98;7.47;;;29.80;35.10;;;;;;5068834;28;20407;-68
2022/05/06 12:13:07;;;;;;;9.83;6.40;;;29.90;35.20;;;;;;5066819;28;21005;-68
2022/05/06 12:15:41;;;;;;;11.65;7.20;;;29.80;35.20;;;;;;5064053;28;20419;-67
2022/05/06 12:18:09;;;;;;;10.75;7.38;;;29.60;35.20;;;;;;5066287;28;20423;-67
2022/05/06 12:20:36;;;;;;;20.17;7.18;;;29.40;36.00;;;;;;5068551;28;20408;-68
2022/05/06 12:23:06;;;;;;;35.50;8.40;;;29.30;36.10;;;;;;5063586;28;22119;-68
2022/05/06 12:25:35;;;;;;;13.32;8.43;;;29.30;36.30;;;;;;5067512;28;20404;-68
2022/05/06 12:28:04;;;;;;;18.77;7.78;;;29.20;36.00;;;;;;5063406;28;20506;-68
2022/05/06 12:30:30;;;;;;;20.02;7.50;;;29.00;36.40;;;;;;5064801;28;20451;-69
2022/05/06 12:33:11;;;;;;;45.47;9.37;;;28.90;36.90;;;;;;5065365;28;20460;-70
2022/05/06 12:35:56;;;;;;;36.83;9.75;;;28.90;36.90;;;;;;5066303;28;20934;-69
2022/05/06 12:38:24;;;;;;;18.42;7.40;;;28.80;36.90;;;;;;5061638;28;20403;-67
2022/05/06 12:40:51;;;;;;;11.90;7.50;;;28.80;37.10;;;;;;5064838;28;20411;-68
2022/05/06 12:43:25;;;;;;;10.40;6.57;;;28.80;36.70;;;;;;5067057;28;20407;-68
2022/05/06 12:45:56;;;;;;;9.87;6.60;;;28.80;36.80;;;;;;5067208;28;20768;-67
2022/05/06 12:51:07;;;;;;;11.40;6.50;;;28.70;37.00;;;;;;5067128;28;20545;-68
2022/05/06 12:53:33;;;;;;;16.30;6.35;;;28.10;38.00;;;;;;5066886;28;20182;-68
2022/05/06 12:56:03;;;;;;;11.15;6.30;;;27.60;38.60;;;;;;5067891;28;20800;-67
2022/05/06 12:58:29;;;;;;;14.15;6.18;;;27.90;37.60;;;;;;5061753;28;20516;-68
2022/05/06 13:00:59;;;;;;;22.58;6.30;;;28.10;37.90;;;;;;5067231;28;20614;-67
2022/05/06 13:03:25;;;;;;;15.30;6.88;;;27.70;38.50;;;;;;5064690;28;20186;-69
2022/05/06 13:05:51;;;;;;;9.68;5.72;;;27.50;38.80;;;;;;5068355;28;20190;-68
2022/05/06 13:08:17;;;;;;;13.75;6.50;;;27.30;39.40;;;;;;5065011;28;20618;-69
2022/05/06 13:10:42;;;;;;;12.80;6.10;;;27.20;39.60;;;;;;5067986;28;20395;-67
2022/05/06 13:13:08;;;;;;;9.87;6.27;;;27.80;38.40;;;;;;5065400;28;20404;-68
2022/05/06 13:15:34;;;;;;;11.63;5.80;;;28.00;37.80;;;;;;5066036;28;20498;-67
2022/05/06 13:17:59;;;;;;;10.02;6.22;;;27.90;38.00;;;;;;5062891;28;20454;-65
2022/05/06 13:20:25;;;;;;;9.57;6.03;;;27.70;37.70;;;;;;5063700;28;20411;-68
2022/05/06 13:22:51;;;;;;;10.80;6.43;;;27.70;38.10;;;;;;5060019;28;20411;-67
2022/05/06 13:25:17;;;;;;;11.80;6.88;;;27.70;38.10;;;;;;5065421;28;20392;-69
2022/05/06 13:27:43;;;;;;;15.07;6.40;;;27.70;37.70;;;;;;5063851;28;20495;-68
2022/05/06 13:30:09;;;;;;;10.17;6.20;;;27.80;38.00;;;;;;5066874;28;20407;-67
2022/05/06 13:32:34;;;;;;;10.63;6.10;;;27.80;37.80;;;;;;5065765;28;20427;-65
2022/05/06 13:35:01;;;;;;;11.75;6.38;;;28.00;37.80;;;;;;5065595;28;20459;-70
2022/05/06 13:37:26;;;;;;;11.37;6.30;;;28.10;37.60;;;;;;5065278;28;20411;-67
2022/05/06 13:39:52;;;;;;;12.17;6.70;;;28.20;37.50;;;;;;5065523;28;20427;-68
2022/05/06 13:42:18;;;;;;;11.77;6.50;;;28.20;37.50;;;;;;5067503;28;20411;-67
2022/05/06 13:44:44;;;;;;;11.48;7.70;;;28.30;37.20;;;;;;5069993;28;20430;-64
2022/05/06 13:47:10;;;;;;;12.13;7.60;;;28.10;37.50;;;;;;5067733;28;20856;-67
2022/05/06 13:49:36;;;;;;;9.03;7.30;;;27.90;37.80;;;;;;5069290;28;20419;-66
2022/05/06 13:52:02;;;;;;;9.07;6.77;;;27.70;38.10;;;;;;5070039;28;20412;-66
2022/05/06 13:54:27;;;;;;;16.75;7.68;;;27.60;38.50;;;;;;5068025;28;20423;-68
2022/05/06 13:59:38;;;;;;;15.43;7.32;;;27.20;40.00;;;;;;5072053;28;20205;-66
2022/05/06 14:02:03;;;;;;;16.45;7.20;;;27.00;40.00;;;;;;5070297;28;20174;-68
2022/05/06 14:04:29;;;;;;;15.55;6.80;;;26.90;40.10;;;;;;5071203;28;20186;-66
2022/05/06 14:06:55;;;;;;;11.07;6.18;;;26.80;40.20;;;;;;5068518;28;20179;-66
2022/05/06 14:09:20;;;;;;;11.40;6.50;;;26.60;40.30;;;;;;5064016;28;20463;-67
2022/05/06 14:11:46;;;;;;;9.63;6.60;;;27.10;40.10;;;;;;5068661;28;20415;-66
2022/05/06 14:14:12;;;;;;;9.50;6.18;;;27.20;40.10;;;;;;5070304;28;20273;-67
2022/05/06 14:16:37;;;;;;;8.98;6.10;;;26.70;40.20;;;;;;5067548;28;20273;-69
2022/05/06 14:19:03;;;;;;;11.60;7.25;;;26.10;41.00;;;;;;5067747;28;20442;-65
2022/05/06 14:21:29;;;;;;;10.33;6.90;;;26.30;41.00;;;;;;5070251;28;20395;-69
2022/05/06 14:23:56;;;;;;;9.55;6.72;;;26.30;40.70;;;;;;5067689;28;20408;-66
2022/05/06 14:26:23;;;;;;;10.85;6.75;;;26.20;40.70;;;;;;5065333;28;20419;-67
2022/05/06 14:28:50;;;;;;;17.98;6.32;;;26.20;40.90;;;;;;5066235;28;20749;-68
2022/05/06 14:31:15;;;;;;;16.47;6.23;;;26.10;41.50;;;;;;5066730;28;20415;-68
2022/05/06 14:33:41;;;;;;;14.85;6.00;;;26.10;41.00;;;;;;5065638;28;20876;-67
2022/05/06 14:36:07;;;;;;;15.25;6.18;;;26.10;40.80;;;;;;5059433;28;20425;-67